createdAt,value
2022-11-05T00:01:32.436Z,1.30
2022-11-05T00:04:17.510Z,0.95
2022-11-05T00:07:02.406Z,0.80
2022-11-05T00:09:31.651Z,0.95
2022-11-05T00:12:25.748Z,0.90
2022-11-05T00:15:10.663Z,1.10
2022-11-05T00:17:37.037Z,0.90
2022-11-05T00:20:04.001Z,0.75
2022-11-05T00:22:48.852Z,1.10
2022-11-05T00:25:16.834Z,0.70
2022-11-05T00:27:50.256Z,0.88
2022-11-05T00:30:18.334Z,0.90
2022-11-05T00:32:48.840Z,0.98
2022-11-05T00:35:15.818Z,0.75
2022-11-05T00:37:47.116Z,0.80
2022-11-05T00:40:16.183Z,0.90
2022-11-05T00:43:02.182Z,0.82
2022-11-05T00:45:29.730Z,0.90
2022-11-05T00:48:14.852Z,0.80
2022-11-05T00:50:41.199Z,1.00
2022-11-05T00:53:07.821Z,1.10
2022-11-05T00:55:38.593Z,0.82
2022-11-05T00:58:09.421Z,1.10
2022-11-05T01:00:37.188Z,1.00
2022-11-05T01:03:05.440Z,0.80
2022-11-05T01:05:32.392Z,0.90
2022-11-05T01:07:58.953Z,0.73
2022-11-05T01:10:25.900Z,0.95
2022-11-05T01:12:52.260Z,1.17
2022-11-05T01:15:19.336Z,0.98
2022-11-05T01:17:45.703Z,0.80
2022-11-05T01:20:12.429Z,0.88
2022-11-05T01:22:38.769Z,1.20
2022-11-05T01:25:07.308Z,1.10
2022-11-05T01:27:33.600Z,0.75
2022-11-05T01:29:59.889Z,1.05
2022-11-05T01:32:26.178Z,0.98
2022-11-05T01:34:52.475Z,1.13
2022-11-05T01:37:18.869Z,0.93
2022-11-05T01:39:45.177Z,1.10
2022-11-05T01:42:18.859Z,0.88
2022-11-05T01:45:04.138Z,1.40
2022-11-05T01:47:40.456Z,1.00
2022-11-05T01:50:12.793Z,0.98
2022-11-05T01:52:39.252Z,0.93
2022-11-05T01:55:06.453Z,1.33
2022-11-05T01:57:32.877Z,1.25
2022-11-05T01:59:59.899Z,1.58
2022-11-05T02:02:26.854Z,1.02
2022-11-05T02:04:55.725Z,1.27
2022-11-05T02:07:22.951Z,0.90
2022-11-05T02:09:53.285Z,1.05
2022-11-05T02:12:20.393Z,1.17
2022-11-05T02:14:46.707Z,1.00
2022-11-05T02:17:31.305Z,1.02
2022-11-05T02:20:18.586Z,1.35
2022-11-05T02:22:57.080Z,1.35
2022-11-05T02:25:29.382Z,1.08
2022-11-05T02:28:19.849Z,1.02
2022-11-05T02:31:01.393Z,1.13
2022-11-05T02:33:30.723Z,0.77
2022-11-05T02:36:20.727Z,1.20
2022-11-05T02:38:50.143Z,0.90
2022-11-05T02:41:22.923Z,1.20
2022-11-05T02:43:55.278Z,1.02
2022-11-05T02:46:26.835Z,1.00
2022-11-05T02:48:55.946Z,1.08
2022-11-05T02:51:34.975Z,1.15
2022-11-05T02:54:13.284Z,0.93
2022-11-05T02:56:41.479Z,1.00
2022-11-05T02:59:07.834Z,1.10
2022-11-05T03:01:35.378Z,0.90
2022-11-05T03:04:03.237Z,0.82
2022-11-05T03:06:39.119Z,0.95
2022-11-05T03:09:05.390Z,1.00
2022-11-05T03:11:42.779Z,0.70
2022-11-05T03:14:21.092Z,0.95
2022-11-05T03:16:57.782Z,0.98
2022-11-05T03:19:35.679Z,1.10
2022-11-05T03:22:06.642Z,1.10
2022-11-05T03:24:34.406Z,0.93
2022-11-05T03:27:03.145Z,2.33
2022-11-05T03:29:32.835Z,1.17
2022-11-05T03:32:02.280Z,0.73
2022-11-05T03:34:31.191Z,1.05
2022-11-05T03:36:58.286Z,1.02
2022-11-05T03:39:32.653Z,0.95
2022-11-05T03:41:59.895Z,1.20
2022-11-05T03:44:28.316Z,0.93
2022-11-05T03:46:56.768Z,0.93
2022-11-05T03:49:28.668Z,0.90
2022-11-05T03:52:00.302Z,0.98
2022-11-05T03:54:27.108Z,1.10
2022-11-05T03:57:02.666Z,1.10
2022-11-05T03:59:30.559Z,1.05
2022-11-05T04:01:58.572Z,0.60
2022-11-05T04:04:25.191Z,0.70
2022-11-05T04:07:10.339Z,0.70
2022-11-05T04:09:55.911Z,0.68
2022-11-05T04:12:41.100Z,1.00
2022-11-05T04:15:07.747Z,0.70
2022-11-05T04:17:34.114Z,0.70
2022-11-05T04:20:18.964Z,0.90
2022-11-05T04:23:03.792Z,0.75
2022-11-05T04:25:30.100Z,0.90
2022-11-05T04:27:59.115Z,1.10
2022-11-05T04:30:25.436Z,0.95
2022-11-05T04:33:11.617Z,0.68
2022-11-05T04:35:39.715Z,1.15
2022-11-05T04:38:07.703Z,0.75
2022-11-05T04:40:34.334Z,0.80
2022-11-05T04:43:01.060Z,0.88
2022-11-05T04:45:28.618Z,0.60
2022-11-05T04:47:55.762Z,0.75
2022-11-05T04:50:22.436Z,0.70
2022-11-05T04:52:48.986Z,0.80
2022-11-05T04:55:15.376Z,0.70
2022-11-05T04:57:41.760Z,0.93
2022-11-05T05:00:08.399Z,0.60
2022-11-05T05:02:35.624Z,0.85
2022-11-05T05:05:01.956Z,0.75
2022-11-05T05:07:28.578Z,0.88
2022-11-05T05:09:55.042Z,0.45
2022-11-05T05:12:21.856Z,0.80
2022-11-05T05:14:49.175Z,0.90
2022-11-05T05:17:15.880Z,1.02
2022-11-05T05:20:01.565Z,0.75
2022-11-05T05:22:27.936Z,0.70
2022-11-05T05:24:55.611Z,0.80
2022-11-05T05:27:23.015Z,0.85
2022-11-05T05:29:49.572Z,0.82
2022-11-05T05:32:15.866Z,0.60
2022-11-05T05:34:42.206Z,0.70
2022-11-05T05:37:08.550Z,0.50
2022-11-05T05:39:34.864Z,0.70
2022-11-05T05:42:01.269Z,0.85
2022-11-05T05:44:27.588Z,0.50
2022-11-05T05:46:54.443Z,0.90
2022-11-05T05:49:20.854Z,0.60
2022-11-05T05:51:50.519Z,0.80
2022-11-05T05:54:16.906Z,0.60
2022-11-05T05:56:44.233Z,0.80
2022-11-05T05:59:10.564Z,0.73
2022-11-05T06:01:36.968Z,0.88
2022-11-05T06:04:03.431Z,0.60
2022-11-05T06:06:30.213Z,0.90
2022-11-05T06:08:56.623Z,0.95
2022-11-05T06:11:28.078Z,0.65
2022-11-05T06:15:02.948Z,0.73
2022-11-05T06:17:29.281Z,0.85
2022-11-05T06:19:55.728Z,0.65
2022-11-05T06:22:22.292Z,0.65
2022-11-05T06:24:51.092Z,0.55
2022-11-05T06:27:17.379Z,0.60
2022-11-05T06:29:43.875Z,0.60
2022-11-05T06:32:10.224Z,0.73
2022-11-05T06:34:36.951Z,0.80
2022-11-05T06:37:03.250Z,0.70
2022-11-05T06:39:29.661Z,0.60
2022-11-05T06:42:17.172Z,0.70
2022-11-05T06:44:45.213Z,0.57
2022-11-05T06:47:11.959Z,0.93
2022-11-05T06:49:38.405Z,0.55
2022-11-05T06:52:04.986Z,0.60
2022-11-05T06:54:31.395Z,0.88
2022-11-05T06:56:57.768Z,0.60
2022-11-05T06:59:24.107Z,0.90
2022-11-05T07:01:50.962Z,0.80
2022-11-05T07:04:17.835Z,0.65
2022-11-05T07:06:44.455Z,0.95
2022-11-05T07:09:10.848Z,0.95
2022-11-05T07:11:37.221Z,0.65
2022-11-05T07:14:03.580Z,0.70
2022-11-05T07:16:29.951Z,0.70
2022-11-05T07:18:56.327Z,0.50
2022-11-05T07:21:22.657Z,0.77
2022-11-05T07:23:49.029Z,0.77
2022-11-05T07:26:15.482Z,0.75
2022-11-05T07:28:42.097Z,0.90
2022-11-05T07:31:08.449Z,0.93
2022-11-05T07:33:36.730Z,0.63
2022-11-05T07:36:03.278Z,0.75
2022-11-05T07:38:29.600Z,0.80
2022-11-05T07:40:58.767Z,0.60
2022-11-05T07:43:25.077Z,1.00
2022-11-05T07:45:51.441Z,1.05
2022-11-05T07:48:17.791Z,1.15
2022-11-05T07:50:44.140Z,0.75
2022-11-05T07:53:12.287Z,1.02
2022-11-05T07:55:40.444Z,0.80
2022-11-05T07:58:06.817Z,0.95
2022-11-05T08:00:33.646Z,0.88
2022-11-05T08:03:09.370Z,0.90
2022-11-05T08:05:37.687Z,0.77
2022-11-05T08:08:04.267Z,0.70
2022-11-05T08:10:30.562Z,0.50
2022-11-05T08:12:56.892Z,0.75
2022-11-05T08:15:23.787Z,0.85
2022-11-05T08:17:50.351Z,0.98
2022-11-05T08:20:16.899Z,0.70
2022-11-05T08:22:44.458Z,0.50
2022-11-05T08:25:11.847Z,0.60
2022-11-05T08:27:38.828Z,0.82
2022-11-05T08:30:06.091Z,0.57
2022-11-05T08:32:32.578Z,0.95
2022-11-05T08:34:59.057Z,0.70
2022-11-05T08:37:25.409Z,0.70
2022-11-05T08:39:51.791Z,0.63
2022-11-05T08:42:18.313Z,0.68
2022-11-05T08:44:44.631Z,0.77
2022-11-05T08:47:10.946Z,0.70
2022-11-05T08:49:37.286Z,1.00
2022-11-05T08:52:03.949Z,0.57
2022-11-05T08:54:32.263Z,0.82
2022-11-05T08:56:58.669Z,0.68
2022-11-05T08:59:25.079Z,0.68
2022-11-05T09:01:51.637Z,0.70
2022-11-05T09:04:18.041Z,1.02
2022-11-05T09:06:45.059Z,0.75
2022-11-05T09:09:11.420Z,0.80
2022-11-05T09:12:05.702Z,0.60
2022-11-05T09:14:27.141Z,0.50
2022-11-05T09:16:53.592Z,0.73
2022-11-05T09:19:19.932Z,0.50
2022-11-05T09:21:46.253Z,0.60
2022-11-05T09:24:12.583Z,0.60
2022-11-05T09:26:39.000Z,0.77
2022-11-05T09:29:06.104Z,0.70
2022-11-05T09:31:34.691Z,0.50
2022-11-05T09:34:00.993Z,0.70
2022-11-05T09:36:27.345Z,0.70
2022-11-05T09:38:53.801Z,0.60
2022-11-05T09:41:26.159Z,1.00
2022-11-05T09:44:12.344Z,0.65
2022-11-05T09:46:45.274Z,0.70
2022-11-05T09:49:24.410Z,0.90
2022-11-05T09:51:52.258Z,0.82
2022-11-05T09:54:19.442Z,0.57
2022-11-05T09:56:46.503Z,0.63
2022-11-05T09:59:24.272Z,0.52
2022-11-05T10:01:52.720Z,0.60
2022-11-05T10:04:21.447Z,0.52
2022-11-05T10:06:49.735Z,0.77
2022-11-05T10:09:20.280Z,0.50
2022-11-05T10:12:15.746Z,1.00
2022-11-05T10:14:44.024Z,0.43
2022-11-05T10:17:13.686Z,0.60
2022-11-05T10:19:48.387Z,0.30
2022-11-05T10:22:18.537Z,0.65
2022-11-05T10:24:47.136Z,0.80
2022-11-05T10:27:15.715Z,0.68
2022-11-05T10:29:42.938Z,0.60
2022-11-05T10:32:10.827Z,0.60
2022-11-05T10:34:38.413Z,1.17
2022-11-05T10:37:04.993Z,0.40
2022-11-05T10:39:32.396Z,0.40
2022-11-05T10:42:09.207Z,0.90
2022-11-05T10:44:39.155Z,0.50
2022-11-05T10:47:12.721Z,0.60
2022-11-05T10:49:45.265Z,0.60
2022-11-05T10:52:25.398Z,0.60
2022-11-05T10:54:52.485Z,0.50
2022-11-05T10:57:27.692Z,0.60
2022-11-05T10:59:55.361Z,0.28
2022-11-05T11:02:25.869Z,0.20
2022-11-05T11:04:53.455Z,0.57
2022-11-05T11:07:22.044Z,0.38
2022-11-05T11:09:48.989Z,0.52
2022-11-05T11:12:25.974Z,0.63
2022-11-05T11:15:03.009Z,0.60
2022-11-05T11:17:30.562Z,0.40
2022-11-05T11:20:15.511Z,0.50
2022-11-05T11:22:41.851Z,0.40
2022-11-05T11:25:18.844Z,0.40
2022-11-05T11:27:45.168Z,0.65
2022-11-05T11:30:16.866Z,0.57
2022-11-05T11:32:43.262Z,0.40
2022-11-05T11:35:18.936Z,0.40
2022-11-05T11:37:46.260Z,0.32
2022-11-05T11:40:16.138Z,0.30
2022-11-05T11:42:45.884Z,0.30
2022-11-05T11:45:18.168Z,0.40
2022-11-05T11:47:45.644Z,0.75
2022-11-05T11:50:32.244Z,0.40
2022-11-05T11:53:16.198Z,0.40
2022-11-05T11:55:54.591Z,0.40
2022-11-05T11:58:21.827Z,0.85
2022-11-05T12:00:50.902Z,0.50
2022-11-05T12:03:31.621Z,0.20
2022-11-05T12:06:03.977Z,0.20
2022-11-05T12:08:45.310Z,0.57
2022-11-05T12:11:18.176Z,0.68
2022-11-05T12:13:54.373Z,0.28
2022-11-05T12:16:56.088Z,0.40
2022-11-05T12:19:28.314Z,0.40
2022-11-05T12:22:00.578Z,0.32
2022-11-05T12:24:26.852Z,0.22
2022-11-05T12:27:16.341Z,0.30
2022-11-05T12:29:58.382Z,0.10
2022-11-05T12:32:40.212Z,0.80
2022-11-05T12:35:09.619Z,0.10
2022-11-05T12:37:39.932Z,0.35
2022-11-05T12:40:18.004Z,0.35
2022-11-05T12:42:50.547Z,0.30
2022-11-05T12:45:22.947Z,0.30
2022-11-05T12:47:53.710Z,0.20
2022-11-05T12:50:32.302Z,0.30
2022-11-05T12:53:11.938Z,0.10
2022-11-05T12:55:44.125Z,0.50
2022-11-05T12:58:17.670Z,0.43
2022-11-05T13:00:46.291Z,0.30
2022-11-05T13:03:27.376Z,0.30
2022-11-05T13:06:02.917Z,0.10
2022-11-05T13:08:46.839Z,0.15
2022-11-05T13:11:21.560Z,0.40
2022-11-05T13:13:52.770Z,0.10
2022-11-05T13:16:25.837Z,0.20
2022-11-05T13:18:58.265Z,0.20
2022-11-05T13:21:25.703Z,0.30
2022-11-05T13:23:55.472Z,0.40
2022-11-05T13:26:34.095Z,0.20
2022-11-05T13:29:15.727Z,0.35
2022-11-05T13:31:45.335Z,0.20
2022-11-05T13:34:12.643Z,0.10
2022-11-05T13:37:15.581Z,0.35
2022-11-05T13:39:52.343Z,0.50
2022-11-05T13:42:28.383Z,0.20
2022-11-05T13:44:57.870Z,0.35
2022-11-05T13:47:36.466Z,0.20
2022-11-05T13:50:02.737Z,0.32
2022-11-05T13:52:46.134Z,0.20
2022-11-05T13:55:21.430Z,0.25
2022-11-05T13:58:06.592Z,0.32
2022-11-05T14:00:36.414Z,0.30
2022-11-05T14:03:04.969Z,0.20
2022-11-05T14:05:36.586Z,0.20
2022-11-05T14:08:11.096Z,0.20
2022-11-05T14:10:57.362Z,0.35
2022-11-05T14:13:25.842Z,0.30
2022-11-05T14:15:55.432Z,0.30
2022-11-05T14:18:24.479Z,0.30
2022-11-05T14:21:01.022Z,0.20
2022-11-05T14:23:36.279Z,0.55
2022-11-05T14:26:16.207Z,0.40
2022-11-05T14:28:44.072Z,0.38
2022-11-05T14:31:19.785Z,0.50
2022-11-05T14:34:00.179Z,0.63
2022-11-05T14:36:31.974Z,0.40
2022-11-05T14:39:12.479Z,0.20
2022-11-05T14:41:57.565Z,0.35
2022-11-05T14:44:24.848Z,0.30
2022-11-05T14:46:52.770Z,0.47
2022-11-05T14:49:21.659Z,0.30
2022-11-05T14:51:49.728Z,0.30
2022-11-05T14:54:28.532Z,0.40
2022-11-05T14:56:57.493Z,0.47
2022-11-05T14:59:23.839Z,0.68
2022-11-05T15:01:50.191Z,0.40
2022-11-05T15:04:45.520Z,0.30
2022-11-05T15:07:24.190Z,0.45
2022-11-05T15:09:55.878Z,0.30
2022-11-05T15:12:25.240Z,0.20
2022-11-05T15:14:57.342Z,0.52
2022-11-05T15:17:29.920Z,0.40
2022-11-05T15:20:00.516Z,0.40
2022-11-05T15:22:30.021Z,0.38
2022-11-05T15:24:56.692Z,0.77
2022-11-05T15:27:42.927Z,0.40
2022-11-05T15:30:20.252Z,0.40
2022-11-05T15:32:46.713Z,0.30
2022-11-05T15:35:19.378Z,0.30
2022-11-05T15:37:52.355Z,0.68
2022-11-05T15:40:30.719Z,0.40
2022-11-05T15:43:17.422Z,0.50
2022-11-05T15:45:44.322Z,0.40
2022-11-05T15:48:14.676Z,0.30
2022-11-05T15:50:41.197Z,0.60
2022-11-05T15:53:37.471Z,0.60
2022-11-05T15:56:06.681Z,0.40
2022-11-05T15:58:38.317Z,0.40
2022-11-05T16:01:04.756Z,0.30
2022-11-05T16:03:32.556Z,0.50
2022-11-05T16:05:59.644Z,0.80
2022-11-05T16:08:27.798Z,0.40
2022-11-05T16:10:55.641Z,0.65
2022-11-05T16:13:30.731Z,0.55
2022-11-05T16:15:58.684Z,0.50
2022-11-05T16:18:29.408Z,0.60
2022-11-05T16:21:06.855Z,0.50
2022-11-05T16:23:44.057Z,0.55
2022-11-05T16:27:00.802Z,1.33
2022-11-05T16:29:18.667Z,0.80
2022-11-05T16:31:52.602Z,0.50
2022-11-05T16:34:31.316Z,0.75
2022-11-05T16:36:58.913Z,1.10
2022-11-05T16:39:25.956Z,0.90
2022-11-05T16:41:52.655Z,0.50
2022-11-05T16:44:19.016Z,0.70
2022-11-05T16:46:47.320Z,1.10
2022-11-05T16:49:14.026Z,1.48
2022-11-05T16:51:40.351Z,1.65
2022-11-05T16:54:06.686Z,1.63
2022-11-05T16:56:33.435Z,1.55
2022-11-05T16:58:59.939Z,1.25
2022-11-05T17:01:27.921Z,1.33
2022-11-05T17:03:54.364Z,1.10
2022-11-05T17:06:21.478Z,1.48
2022-11-05T17:08:48.292Z,1.33
2022-11-05T17:11:15.841Z,1.60
2022-11-05T17:13:42.383Z,1.52
2022-11-05T17:16:10.128Z,1.52
2022-11-05T17:18:36.650Z,2.05
2022-11-05T17:21:03.018Z,1.60
2022-11-05T17:23:29.873Z,1.50
2022-11-05T17:26:00.634Z,1.50
2022-11-05T17:28:27.448Z,1.17
2022-11-05T17:30:53.811Z,1.20
2022-11-05T17:33:21.089Z,1.38
2022-11-05T17:35:47.449Z,1.60
2022-11-05T17:38:14.012Z,2.15
2022-11-05T17:40:40.831Z,1.38
2022-11-05T17:43:07.567Z,1.35
2022-11-05T17:45:34.121Z,1.00
2022-11-05T17:48:03.182Z,1.00
2022-11-05T17:50:30.014Z,1.40
2022-11-05T17:52:56.556Z,1.30
2022-11-05T17:55:22.881Z,1.73
2022-11-05T17:57:50.775Z,0.95
2022-11-05T18:00:18.658Z,1.48
2022-11-05T18:02:46.112Z,1.33
2022-11-05T18:05:12.575Z,1.45
2022-11-05T18:07:38.904Z,1.20
2022-11-05T18:10:05.981Z,1.27
2022-11-05T18:12:32.990Z,1.30
2022-11-05T18:14:59.371Z,1.35
2022-11-05T18:17:25.730Z,1.08
2022-11-05T18:19:52.168Z,1.13
2022-11-05T18:22:19.509Z,1.73
2022-11-05T18:24:46.282Z,1.30
2022-11-05T18:27:13.158Z,1.30
2022-11-05T18:29:39.474Z,1.33
2022-11-05T18:32:05.903Z,1.02
2022-11-05T18:34:32.218Z,1.23
2022-11-05T18:36:58.519Z,1.42
2022-11-05T18:39:25.222Z,1.30
2022-11-05T18:41:51.550Z,1.25
2022-11-05T18:44:22.619Z,1.27
2022-11-05T18:49:24.985Z,1.48
2022-11-05T18:51:51.319Z,2.00
2022-11-05T18:54:17.730Z,2.20
2022-11-05T18:56:46.747Z,1.88
2022-11-05T19:02:00.552Z,1.85
2022-11-05T19:04:27.095Z,1.83
2022-11-05T19:06:53.624Z,1.65
2022-11-05T19:09:20.585Z,1.65
2022-11-05T19:11:47.107Z,1.65
2022-11-05T19:14:13.433Z,1.73
2022-11-05T19:16:39.814Z,2.30
2022-11-05T19:19:06.863Z,1.67
2022-11-05T19:21:33.377Z,2.05
2022-11-05T19:24:01.499Z,1.92
2022-11-05T19:26:29.149Z,2.67
2022-11-05T19:28:57.257Z,2.55
2022-11-05T19:31:23.647Z,2.55
2022-11-05T19:33:54.026Z,2.25
2022-11-05T19:36:21.182Z,2.42
2022-11-05T19:38:49.611Z,3.13
2022-11-05T19:41:18.299Z,2.13
2022-11-05T19:43:44.670Z,2.13
2022-11-05T19:46:12.356Z,2.67
2022-11-05T19:48:38.724Z,2.20
2022-11-05T19:51:06.237Z,2.22
2022-11-05T19:53:34.489Z,1.98
2022-11-05T19:56:04.558Z,2.22
2022-11-05T19:58:30.835Z,1.90
2022-11-05T20:00:57.140Z,1.70
2022-11-05T20:03:23.534Z,1.90
2022-11-05T20:05:49.939Z,2.40
2022-11-05T20:08:16.356Z,2.33
2022-11-05T20:10:42.727Z,2.38
2022-11-05T20:13:09.046Z,2.00
2022-11-05T20:15:39.485Z,1.73
2022-11-05T20:18:06.127Z,2.33
2022-11-05T20:20:32.719Z,2.05
2022-11-05T20:22:59.028Z,1.77
2022-11-05T20:25:25.364Z,1.80
2022-11-05T20:27:51.669Z,1.85
2022-11-05T20:30:18.615Z,1.92
2022-11-05T20:32:45.007Z,2.17
2022-11-05T20:35:11.317Z,2.40
2022-11-05T20:37:37.626Z,1.80
2022-11-05T20:40:04.160Z,1.48
2022-11-05T20:42:30.797Z,2.42
2022-11-05T20:44:57.135Z,2.58
2022-11-05T20:47:23.530Z,1.98
2022-11-05T20:49:49.895Z,2.33
2022-11-05T20:52:17.401Z,1.75
2022-11-05T20:54:44.323Z,2.38
2022-11-05T20:57:11.214Z,1.60
2022-11-05T20:59:37.532Z,1.67
2022-11-05T21:02:04.102Z,1.70
2022-11-05T21:04:30.752Z,1.80
2022-11-05T21:06:57.142Z,1.70
2022-11-05T21:09:23.793Z,1.58
2022-11-05T21:12:09.052Z,1.50
2022-11-05T21:14:35.639Z,1.50
2022-11-05T21:17:01.974Z,1.67
2022-11-05T21:19:30.086Z,1.65
2022-11-05T21:21:56.462Z,1.45
2022-11-05T21:24:22.809Z,1.30
2022-11-05T21:26:51.992Z,1.77
2022-11-05T21:29:18.827Z,1.27
2022-11-05T21:31:46.753Z,1.88
2022-11-05T21:34:18.109Z,1.42
2022-11-05T21:39:22.437Z,1.60
2022-11-05T21:41:50.839Z,1.55
2022-11-05T21:44:18.243Z,0.98
2022-11-05T21:46:48.035Z,1.65
2022-11-05T21:49:15.415Z,1.80
2022-11-05T21:52:00.357Z,1.92
2022-11-05T21:54:45.512Z,2.45
2022-11-05T21:57:32.697Z,2.30
2022-11-05T22:00:00.506Z,2.17
2022-11-05T22:02:30.639Z,1.95
2022-11-05T22:04:57.611Z,2.33
2022-11-05T22:07:26.103Z,1.98
2022-11-05T22:09:52.785Z,2.42
2022-11-05T22:12:19.137Z,2.03
2022-11-05T22:14:45.794Z,2.10
2022-11-05T22:17:12.536Z,2.08
2022-11-05T22:19:39.305Z,2.25
2022-11-05T22:22:05.771Z,2.03
2022-11-05T22:24:32.826Z,2.03
2022-11-05T22:26:59.808Z,1.90
2022-11-05T22:29:26.280Z,2.63
2022-11-05T22:31:52.625Z,1.70
2022-11-05T22:34:18.939Z,2.15
2022-11-05T22:36:45.315Z,1.80
2022-11-05T22:39:12.130Z,2.10
2022-11-05T22:41:38.615Z,1.80
2022-11-05T22:44:05.051Z,1.88
2022-11-05T22:46:32.042Z,2.55
2022-11-05T22:48:59.301Z,1.65
2022-11-05T22:51:27.015Z,1.90
2022-11-05T22:53:54.764Z,1.60
2022-11-05T22:56:22.342Z,2.03
2022-11-05T22:58:49.035Z,2.00
2022-11-05T23:01:15.908Z,1.85
2022-11-05T23:03:43.197Z,1.67
2022-11-05T23:06:32.640Z,1.83
2022-11-05T23:09:18.075Z,1.65
2022-11-05T23:11:46.696Z,1.85
2022-11-05T23:14:13.544Z,1.90
2022-11-05T23:16:58.893Z,1.35
2022-11-05T23:19:43.719Z,1.33
2022-11-05T23:22:32.122Z,1.85
2022-11-05T23:24:58.534Z,1.60
2022-11-05T23:27:28.475Z,1.42
2022-11-05T23:29:59.079Z,1.55
2022-11-05T23:32:25.785Z,2.20
2022-11-05T23:34:52.657Z,1.65
2022-11-05T23:37:38.410Z,1.40
2022-11-05T23:40:05.908Z,1.30
2022-11-05T23:42:50.995Z,1.20
2022-11-05T23:45:35.778Z,1.20
2022-11-05T23:48:17.795Z,1.65
2022-11-05T23:50:51.004Z,1.55
2022-11-05T23:53:17.729Z,1.92
2022-11-05T23:55:44.079Z,2.10
2022-11-05T23:58:10.898Z,1.67
